^^
Datos históricos de la estación: Murcia-Puente Tocinos
Diario Informe para Mayo 21, 2019 Unidades:  Ingés    Métrico   Ambas
Diario Semanal Mensual Anual
  Máxima: Mínima: Promedio:
Temperatura: 91 °F 76.8 °F 83.5 °F
Punto de rocio: 69.3 °F 55.8 °F 62.4 °F
Humedad: 70% 31.5% 50%
Velocidad viento: 15.2mph 0mph 7.3mph
Racha viento: 28mph - -
Viento- - ESE
Presión: 30.1 in 30 in -
Precipitación: 0 in    
 
 
Tabla de datos para Mayo 21, 2019
Hora Temperatura Punto de rocio Presión Viento Velocidad viento Racha viento Humedad Intensidad lluvia(por hora) Nubes
00:04 80.1 °F 65.5 °F 30 in NE 4.7 mph 7 mph 61% 0 in
00:09 80.1 °F 65.5 °F 30 in NE 4.3 mph 7 mph 61% 0 in
00:14 80.1 °F 65.3 °F 30 in NE 3.1 mph 5 mph 61% 0 in
00:19 80.1 °F 65.5 °F 30 in NNE 2.3 mph 3 mph 61% 0 in
00:24 80.1 °F 65.3 °F 30 in Calm   2 mph 61% 0 in
00:29 79.9 °F 65.1 °F 30 in Calm     61% 0 in
00:34 79.9 °F 65.1 °F 30 in Calm     61% 0 in
00:39 79.9 °F 65.1 °F 30 in Calm     61% 0 in
00:44 79.9 °F 64.9 °F 30 in Calm   4 mph 60.3% 0 in
00:49 79.7 °F 64.8 °F 30 in ONO 0.4 mph 5 mph 60.3% 0 in
00:54 79.7 °F 64.6 °F 30 in ONO 1.8 mph 5 mph 60% 0 in
00:59 79.7 °F 64.6 °F 30 in OSO 2.2 mph 5 mph 60% 0 in
01:04 79.9 °F 64.2 °F 30 in Oeste 2.9 mph 6.9 mph 59.1% 0 in
01:09 79.9 °F 64.2 °F 30 in Oeste 3.1 mph 7 mph 59% 0 in
01:14 80.1 °F 64 °F 30 in Oeste 3.6 mph 6 mph 58.2% 0 in
01:19 80.1 °F 64 °F 30 in Oeste 3.4 mph 5 mph 57.9% 0 in
01:24 80.1 °F 63.5 °F 30 in Oeste 2.9 mph 3 mph 57% 0 in
01:29 80.2 °F 63.1 °F 30 in ONO 2.1 mph   56.2% 0 in
01:34 80.4 °F 63.5 °F 30 in Calm     56.4% 0 in
01:39 80.6 °F 64 °F 30 in Calm     57% 0 in
01:44 80.6 °F 64 °F 30 in Calm   3.1 mph 57% 0 in
01:49 80.8 °F 64 °F 30 in SSE 0.5 mph 4.7 mph 57% 0 in
01:54 80.6 °F 63.9 °F 30 in SSO 1.8 mph 5.9 mph 56.8% 0 in
01:59 80.6 °F 63.7 °F 30 in OSO 2.2 mph 6 mph 56.5% 0 in
02:04 80.6 °F 64 °F 30 in Sur 3.1 mph 5 mph 57% 0 in
02:09 80.4 °F 64.2 °F 30 in SSO 3.2 mph 6.9 mph 57.8% 0 in
02:14 80.2 °F 64 °F 30 in SO 3.6 mph 7 mph 58% 0 in
02:19 80.1 °F 64 °F 30 in SO 3.6 mph 6.9 mph 58% 0 in
02:24 80.1 °F 64.4 °F 30 in SO 3.6 mph 9.2 mph 58.9% 0 in
02:29 79.9 °F 64.2 °F 30 in SO 4 mph 9.2 mph 59% 0 in
02:34 79.7 °F 64.2 °F 30 in SO 5.2 mph 9 mph 59% 0 in
02:39 79.5 °F 63.9 °F 30 in SO 5.1 mph 7 mph 59% 0 in
02:44 79.5 °F 63.9 °F 30 in SO 4.7 mph 7 mph 59% 0 in
02:49 79.3 °F 63.9 °F 30 in SO 4.5 mph 7 mph 59% 0 in
02:54 79.3 °F 63.9 °F 30 in SO 4 mph 6.2 mph 59% 0 in
02:59 79.3 °F 63.9 °F 30 in OSO 4 mph 6 mph 59% 0 in
03:04 79.3 °F 63.7 °F 30 in SO 4 mph 6.2 mph 58.7% 0 in
03:09 79.2 °F 63.5 °F 30 in SO 4 mph 6 mph 58.7% 0 in
03:14 79.2 °F 63.1 °F 30 in SO 4 mph 6.9 mph 58.2% 0 in
03:19 79.2 °F 63.3 °F 30 in SSO 4 mph 7 mph 58.5% 0 in
03:24 79.2 °F 63.7 °F 30 in SSO 4 mph 8.5 mph 59.5% 0 in
03:29 78.8 °F 63.7 °F 30 in SSO 4.3 mph 9 mph 59.8% 0 in
03:34 78.6 °F 63.3 °F 30 in SSO 5.2 mph 9.2 mph 59.5% 0 in
03:39 78.6 °F 63.5 °F 30 in SO 5 mph 9 mph 59.9% 0 in
03:44 78.4 °F 63 °F 30 in SO 4.7 mph 8.1 mph 59.1% 0 in
03:49 78.4 °F 63 °F 30 in SO 4.6 mph 8.5 mph 59% 0 in
03:54 78.4 °F 63 °F 30 in SSO 4.3 mph 9 mph 59% 0 in
03:59 78.4 °F 62.8 °F 30 in SE 3.9 mph 8 mph 59% 0 in
04:04 78.3 °F 63 °F 30 in Sur 3.1 mph 7.6 mph 59.3% 0 in
04:09 78.1 °F 62.6 °F 30 in SSO 3.4 mph 8.5 mph 59.1% 0 in
04:14 78.1 °F 62.6 °F 30 in SSO 4.3 mph 9 mph 59% 0 in
04:19 78.3 °F 62.2 °F 30 in SO 4 mph 6.4 mph 58.1% 0 in
04:24 78.3 °F 62.2 °F 30 in Sur 3.1 mph 7 mph 58% 0 in
04:29 78.1 °F 62.4 °F 30 in SSE 3 mph 6 mph 58.5% 0 in
04:34 78.1 °F 62.4 °F 30 in SSO 2.9 mph 6.2 mph 58.7% 0 in
04:39 77.9 °F 62.4 °F 30 in Sur 3.1 mph 6 mph 59% 0 in
04:44 77.7 °F 62.2 °F 30 in Sur 3.6 mph 6 mph 59% 0 in
04:49 77.7 °F 62.1 °F 30 in SO 3.3 mph 6 mph 58.8% 0 in
04:54 77.7 °F 62.1 °F 30 in OSO 2.4 mph 5.2 mph 58.7% 0 in
04:59 77.7 °F 62.2 °F 30 in SSO 2.6 mph 5.8 mph 59% 0 in
05:04 77.7 °F 62.1 °F 30 in Sur 3.1 mph 6 mph 58.6% 0 in
05:09 77.7 °F 62.2 °F 30 in SSO 3.4 mph 7.4 mph 59% 0 in
05:14 77.5 °F 62.1 °F 30 in Sur 4 mph 7 mph 59% 0 in
05:19 77.5 °F 62.1 °F 30 in Sur 4 mph 7.4 mph 59% 0 in
05:24 77.5 °F 62.1 °F 30 in SSO 4 mph 8.1 mph 59% 0 in
05:29 77.4 °F 61.9 °F 30 in SSO 4.4 mph 8.1 mph 59% 0 in
05:34 77.4 °F 62.1 °F 30 in Sur 5.4 mph 8 mph 59.3% 0 in
05:39 77.4 °F 62.4 °F 30 in SSO 5.1 mph 6.9 mph 59.9% 0 in
05:44 77.4 °F 62.4 °F 30 in SSO 4.3 mph 7.6 mph 60% 0 in
05:49 77.4 °F 62.2 °F 30 in SSO 4.4 mph 8.1 mph 59.7% 0 in
05:54 77.4 °F 61.9 °F 30 in SSO 4.7 mph 7 mph 59% 0 in
05:59 77.2 °F 61.7 °F 30 in SSO 4.6 mph 8.1 mph 59% 0 in
06:04 77.2 °F 61.7 °F 30 in SSO 4.3 mph 8 mph 59.1% 0 in
06:09 77.2 °F 62.2 °F 30 in SSO 4.4 mph 7.4 mph 59.9% 0 in
06:14 77.2 °F 62.2 °F 30 in SSO 4.7 mph 7.4 mph 60% 0 in
06:19 77.2 °F 62.2 °F 30 in SSO 4.6 mph 7 mph 60% 0 in
06:24 77.2 °F 62.2 °F 30 in SSO 4.3 mph 6 mph 60% 0 in
06:29 77 °F 62.1 °F 30 in SSO 4 mph 6 mph 60% 0 in
06:34 77 °F 61.5 °F 30 in SO 3.1 mph 5 mph 59.1% 0 in
06:39 77 °F 61.5 °F 30 in SO 2.9 mph 5 mph 59% 0 in
06:44 76.8 °F 61.2 °F 30 in SO 2.4 mph 6.2 mph 58.3% 0 in
06:49 77 °F 61.2 °F 30 in Sur 2.9 mph 8.1 mph 58.2% 0 in
06:54 76.8 °F 61 °F 30 in SSO 4 mph 10.4 mph 58.1% 0 in
06:59 76.8 °F 61 °F 30 in SSO 4.5 mph 10 mph 58% 0 in
07:04 76.8 °F 61 °F 30 in SSO 5.4 mph 7 mph 58% 0 in
07:09 76.8 °F 61 °F 30 in Sur 5 mph 7.4 mph 58% 0 in
07:14 76.8 °F 61 °F 30 in SSO 4 mph 7 mph 58% 0 in
07:19 76.8 °F 60.6 °F 30 in SSO 3.8 mph 5.8 mph 57.4% 0 in
07:24 76.8 °F 60.8 °F 30 in SSO 3.1 mph 6 mph 57.8% 0 in
07:29 77 °F 61 °F 30 in SSO 2.9 mph 5.2 mph 57.9% 0 in
07:34 77 °F 60.6 °F 30 in SSO 2.4 mph 5.8 mph 57% 0 in
07:39 77.2 °F 60.6 °F 30 in SSO 2.7 mph 6.9 mph 57% 0 in
07:44 77.2 °F 60.8 °F 30 in SSO 3.6 mph 7 mph 57% 0 in
07:49 77.4 °F 60.6 °F 30 in SSO 3.7 mph 6.2 mph 56.6% 0 in
07:54 77.4 °F 60.4 °F 30 in SSO 4 mph 6.9 mph 56% 0 in
07:59 77.5 °F 60.8 °F 30 in SSO 4.1 mph 7 mph 56.3% 0 in
08:04 77.5 °F 60.6 °F 30 in SSO 4.3 mph 8.1 mph 56% 0 in
08:09 77.7 °F 60.8 °F 30 in Sur 4.4 mph 9.2 mph 56% 0 in
08:14 77.7 °F 61 °F 30 in SSO 4.7 mph 9 mph 56.3% 0 in
08:19 77.5 °F 60.6 °F 30 in SSO 4.9 mph 9.7 mph 55.9% 0 in
08:24 77.5 °F 60.6 °F 30 in SSO 5.4 mph 10 mph 55.9% 0 in
08:29 77.5 °F 60.6 °F 30 in SO 5.4 mph 10.2 mph 56% 0 in
08:34 77.7 °F 60.6 °F 30 in SO 5.4 mph 10.7 mph 55.9% 0 in
08:39 77.7 °F 60.6 °F 30 in SO 5.4 mph 11 mph 55.7% 0 in
08:44 78.1 °F 60.6 °F 30 in OSO 5.4 mph 9.2 mph 55% 0 in
08:49 78.3 °F 60.8 °F 30 in SO 5.4 mph 9 mph 55% 0 in
08:54 78.4 °F 60.8 °F 30 in SO 5.4 mph 9 mph 55% 0 in
08:59 78.6 °F 61 °F 30 in OSO 5.3 mph 8.5 mph 55% 0 in
09:04 78.8 °F 60.8 °F 30 in Oeste 5.2 mph 9 mph 54.3% 0 in
09:09 79 °F 60.8 °F 30 in OSO 4.8 mph 8.1 mph 53.8% 0 in
09:14 79.3 °F 60.8 °F 30 in OSO 4 mph 6.9 mph 53.2% 0 in
09:19 79.3 °F 60.4 °F 30 in SO 4.1 mph 8.7 mph 52.3% 0 in
09:24 79.7 °F 60.4 °F 30 in SO 4.3 mph 9.2 mph 51.8% 0 in
09:29 79.9 °F 60.3 °F 30 in SSO 4.4 mph 9 mph 51.4% 0 in
09:34 80.2 °F 60.6 °F 30 in OSO 4.7 mph 7 mph 51.3% 0 in
09:39 80.4 °F 60.3 °F 30 in Oeste 4.6 mph 8.1 mph 50.4% 0 in
09:44 80.6 °F 60.3 °F 30 in OSO 4.3 mph 8 mph 50.1% 0 in
09:49 81 °F 60.6 °F 30 in SO 4 mph 6.2 mph 50.2% 0 in
09:54 81.1 °F 60.6 °F 30 in SO 3.1 mph 6 mph 49.9% 0 in
09:59 81.5 °F 60.6 °F 30 in OSO 3.1 mph 7.4 mph 49.2% 0 in
10:04 81.7 °F 60.8 °F 30 in OSO 3.1 mph 7 mph 49% 0 in
10:09 82 °F 60.6 °F 30 in SSE 2.8 mph 5 mph 48.3% 0 in
10:14 82.6 °F 60.4 °F 30 in ONO 2 mph 5 mph 47.3% 0 in
10:19 82.8 °F 60.6 °F 30 in Oeste 2.1 mph 5 mph 47% 0 in
10:24 83.5 °F 60.8 °F 30 in North 2.4 mph 5 mph 46.4% 0 in
10:29 84.4 °F 60.8 °F 30 in NNE 2.3 mph 5 mph 45.3% 0 in
10:34 84.7 °F 60.8 °F 30 in NE 2 mph 6.9 mph 44.4% 0 in
10:39 85.1 °F 61.2 °F 30 in ENE 2.1 mph 7 mph 44.7% 0 in
10:44 85.6 °F 62.1 °F 30 in NE 2.4 mph 10.2 mph 45.3% 0 in
10:49 85.1 °F 62.2 °F 30 in NE 3.2 mph 10.4 mph 46.5% 0 in
10:54 85.1 °F 62.8 °F 30 in NE 5.2 mph 10.2 mph 47.2% 0 in
10:59 85.3 °F 63.7 °F 30 in NNE 5 mph 12.7 mph 48.6% 0 in
11:04 85.1 °F 63.7 °F 30 in NE 4.7 mph 14 mph 49% 0 in
11:09 84.7 °F 63.5 °F 30 in NNE 5.4 mph 14 mph 49% 0 in
11:14 85.1 °F 64.2 °F 30 in NNE 7.4 mph 13 mph 49.7% 0 in
11:19 85.5 °F 64.4 °F 30 in NNE 7 mph 16.1 mph 49.2% 0 in
11:24 85.6 °F 64.8 °F 30 in NE 5.9 mph 17.3 mph 49.9% 0 in
11:29 85.8 °F 64.9 °F 30 in NE 6.6 mph 17 mph 49.8% 0 in
11:34 86.2 °F 64.8 °F 30 in NNE 8.7 mph 17.3 mph 49.1% 0 in
11:39 86.2 °F 64.9 °F 30 in NE 9.1 mph 16.1 mph 49.3% 0 in
11:44 86.5 °F 64 °F 30 in NE 10.2 mph 16.1 mph 47.4% 0 in
11:49 86.9 °F 63.9 °F 30 in NE 10.1 mph 18.1 mph 46.4% 0 in
11:54 87.4 °F 61.7 °F 30 in NE 9.2 mph 24.2 mph 42.3% 0 in
11:59 87.4 °F 60.8 °F 30 in NE 10.4 mph 24 mph 40.8% 0 in
12:04 88.2 °F 61.3 °F 30 in NE 13 mph 19.7 mph 40.8% 0 in
12:09 88.3 °F 59.9 °F 30 in NE 12.4 mph 21.9 mph 38.4% 0 in
12:14 89.1 °F 58.5 °F 30 in ENE 10.7 mph 22 mph 35.9% 0 in
12:19 89.6 °F 58.1 °F 30 in NE 10.8 mph 21.9 mph 34.7% 0 in
12:24 89.8 °F 56.7 °F 30 in ENE 11.2 mph 22 mph 32.8% 0 in
12:29 89.8 °F 55.8 °F 30 in NE 11.2 mph 22 mph 31.8% 0 in
12:34 89.8 °F 55.9 °F 30 in ENE 11.2 mph 20.7 mph 31.9% 0 in
12:39 90 °F 56.1 °F 30 in NE 11.2 mph 21 mph 31.9% 0 in
12:44 90 °F 55.9 °F 30 in NE 11.4 mph 21 mph 31.6% 0 in
12:49 89.8 °F 56.5 °F 30 in NE 11.9 mph 21.3 mph 32.6% 0 in
12:54 89.6 °F 56.7 °F 30 in ENE 13 mph 21 mph 32.9% 0 in
12:59 90 °F 55.8 °F 30 in NE 12.3 mph 24.2 mph 31.5% 0 in
13:04 90 °F 55.9 °F 30 in ENE 10.7 mph 24 mph 32% 0 in
13:09 90 °F 57.2 °F 30 in NE 11.1 mph 24.2 mph 33.3% 0 in
13:14 89.4 °F 58.3 °F 30 in NE 12.3 mph 24 mph 35.2% 0 in
13:19 89.4 °F 58.8 °F 30 in NE 12.4 mph 21 mph 35.9% 0 in
13:24 89.4 °F 59.5 °F 30 in NE 12.5 mph 21 mph 36.8% 0 in
13:29 89.4 °F 59.2 °F 30 in NE 12.5 mph 21 mph 36.3% 0 in
13:34 89.4 °F 59.5 °F 30 in NE 12.5 mph 20 mph 36.7% 0 in
13:39 89.4 °F 59.7 °F 30 in NE 12.9 mph 22.3 mph 37% 0 in
13:44 89.4 °F 59.9 °F 30 in NE 13.7 mph 22 mph 37.2% 0 in
13:49 89.8 °F 60.3 °F 30 in NE 13.3 mph 22 mph 37.3% 0 in
13:54 89.8 °F 60.1 °F 30 in NE 12.3 mph 24.2 mph 37% 0 in
13:59 89.6 °F 60.4 °F 30 in NE 12.4 mph 24 mph 37.7% 0 in
14:04 90 °F 60.3 °F 30 in NE 12.5 mph 22 mph 37% 0 in
14:09 90.1 °F 60.3 °F 30 in ENE 12.2 mph 21 mph 36.8% 0 in
14:14 90.3 °F 59.7 °F 30 in NE 11.4 mph 20.7 mph 36% 0 in
14:19 90.1 °F 59.5 °F 30 in NE 11.7 mph 21.9 mph 36% 0 in
14:24 90.3 °F 59.7 °F 30 in ENE 12.3 mph 22 mph 36% 0 in
14:29 90.7 °F 60.1 °F 30 in ENE 11.7 mph 19.7 mph 35.9% 0 in
14:34 90.7 °F 60.1 °F 30 in ENE 10.2 mph 22.3 mph 36% 0 in
14:39 90.5 °F 59.7 °F 30 in ENE 10.5 mph 22 mph 35.8% 0 in
14:44 90.3 °F 59.4 °F 30 in ENE 11.2 mph 20.7 mph 35.5% 0 in
14:49 90.7 °F 60.1 °F 30 in ENE 11.4 mph 21 mph 36% 0 in
14:54 90.7 °F 59.5 °F 30 in NE 11.8 mph 20.8 mph 35.3% 0 in
14:59 90.7 °F 59.4 °F 30 in NE 11.8 mph 21 mph 35.1% 0 in
15:04 90.9 °F 59.7 °F 30 in ENE 11.8 mph 20 mph 35.5% 0 in
15:09 91 °F 59.7 °F 30 in NE 11.4 mph 19.6 mph 35.2% 0 in
15:14 90.9 °F 59.9 °F 30 in ENE 10.2 mph 22.3 mph 35.6% 0 in
15:19 90.7 °F 60.1 °F 30 in NE 10.4 mph 22 mph 36% 0 in
15:24 90.5 °F 60.1 °F 30 in ENE 11.4 mph 22.3 mph 36.2% 0 in
15:29 90.7 °F 60.1 °F 30 in Este 11.6 mph 22 mph 36.1% 0 in
15:34 90.5 °F 61 °F 30 in ENE 12.3 mph 21 mph 37.3% 0 in
15:39 90.9 °F 61.2 °F 30 in ENE 11.6 mph 21 mph 37.1% 0 in
15:44 90.7 °F 61.3 °F 30 in ENE 9.7 mph 23 mph 37.6% 0 in
15:49 90.5 °F 61.5 °F 30 in ENE 10.1 mph 23 mph 38.3% 0 in
15:54 90.3 °F 61.5 °F 30 in NE 11.2 mph 21.9 mph 38.3% 0 in
15:59 90.7 °F 62.1 °F 30 in NE 11.2 mph 22 mph 38.8% 0 in
16:04 90.9 °F 62.6 °F 30 in NE 11.4 mph 22.3 mph 39.1% 0 in
16:09 90.5 °F 62.8 °F 30 in ENE 11.2 mph 22 mph 39.9% 0 in
16:14 90.3 °F 62.8 °F 30 in NE 10.7 mph 21 mph 40% 0 in
16:19 90.3 °F 61.9 °F 30 in NE 11 mph 24.2 mph 38.8% 0 in
16:24 90.1 °F 60.8 °F 30 in ENE 11.8 mph 24.2 mph 37.5% 0 in
16:29 90.3 °F 61.2 °F 30 in NE 11.7 mph 24.2 mph 37.9% 0 in
16:34 90.3 °F 59.7 °F 30 in NE 11.4 mph 22 mph 36.1% 0 in
16:39 90.1 °F 59.2 °F 30 in NE 12.3 mph 27.9 mph 35.5% 0 in
16:44 90 °F 59.5 °F 30 in NE 14.7 mph 28 mph 36.1% 0 in
16:49 90 °F 59.9 °F 30 in NE 14.2 mph 26.5 mph 36.5% 0 in
16:54 89.8 °F 60.1 °F 30 in NE 13 mph 27.5 mph 37% 0 in
16:59 89.8 °F 60.1 °F 30 in NE 13.2 mph 27 mph 37% 0 in
17:04 90 °F 60.3 °F 30 in NE 13.7 mph 23 mph 37% 0 in
17:09 90 °F 60.3 °F 30 in NE 13.5 mph 23.5 mph 37% 0 in
17:14 90 °F 60.3 °F 30 in NE 13 mph 25.3 mph 37% 0 in
17:19 90 °F 60.3 °F 30 in NE 12.9 mph 25 mph 37% 0 in
17:24 90 °F 59.9 °F 30 in NE 12.5 mph 24.2 mph 36.9% 0 in
17:29 89.4 °F 59.7 °F 30 in NE 12.9 mph 24.6 mph 37% 0 in
17:34 89.4 °F 59.4 °F 30 in NE 14 mph 25 mph 36.5% 0 in
17:39 89.2 °F 59.5 °F 30 in NE 14.4 mph 25.6 mph 36.8% 0 in
17:44 89.2 °F 59.5 °F 30 in NE 15.2 mph 26 mph 37% 0 in
17:49 89.4 °F 59.7 °F 30 in NE 14.7 mph 22 mph 37% 0 in
17:54 89.6 °F 60.1 °F 30 in NE 13.5 mph 22 mph 37.4% 0 in
17:59 90 °F 60.3 °F 30 in NE 12.4 mph 19.6 mph 36.9% 0 in
18:04 89.6 °F 59.9 °F 30 in NE 10 mph 20 mph 37.1% 0 in
18:09 89.6 °F 60.6 °F 30 in NE 10.7 mph 21.3 mph 38% 0 in
18:14 89.4 °F 60.4 °F 30 in NE 12.5 mph 25.6 mph 38% 0 in
18:19 89.2 °F 60.3 °F 30 in NE 12.7 mph 26 mph 38% 0 in
18:24 89.2 °F 60.1 °F 30 in NE 13 mph 26.8 mph 37.7% 0 in
18:29 88.9 °F 60.1 °F 30 in NE 13.5 mph 27 mph 38.1% 0 in
18:34 88.7 °F 60.6 °F 30 in NE 14.7 mph 25 mph 38.9% 0 in
18:39 88.5 °F 60.6 °F 30 in NE 14.8 mph 25.6 mph 39.3% 0 in
18:44 88.3 °F 61 °F 30 in NE 15.2 mph 26 mph 40% 0 in
18:49 88.3 °F 61 °F 30 in NE 15.2 mph 26 mph 40% 0 in
18:54 88.2 °F 60.3 °F 30 in NE 15.2 mph 24 mph 39.4% 0 in
18:59 88.2 °F 61.2 °F 30 in NE 14.7 mph 27.9 mph 40.8% 0 in
19:04 87.8 °F 61 °F 30 in NE 13.7 mph 28 mph 40.7% 0 in
19:09 87.6 °F 61 °F 30 in NE 13.7 mph 26.5 mph 41% 0 in
19:14 87.4 °F 61.2 °F 30 in NE 13.7 mph 26.5 mph 41.5% 0 in
19:19 87.4 °F 61 °F 30 in NE 13.9 mph 26 mph 41.2% 0 in
19:24 87.3 °F 61.5 °F 30 in NE 14.5 mph 25 mph 42% 0 in
19:29 87.3 °F 61.3 °F 30 in ENE 14.2 mph 22 mph 42% 0 in
19:34 87.3 °F 61.9 °F 30 in NE 12.3 mph 22.3 mph 42.8% 0 in
19:39 87.3 °F 61.9 °F 30 in NE 11.9 mph 22 mph 43% 0 in
19:44 87.1 °F 62.4 °F 30 in NE 10.7 mph 20 mph 43.9% 0 in
19:49 87.1 °F 62.4 °F 30 in NE 10.7 mph 20.8 mph 43.8% 0 in
19:54 86.9 °F 61.7 °F 30 in NE 10.7 mph 21 mph 43% 0 in
19:59 86.5 °F 61.7 °F 30 in NE 11.2 mph 21 mph 43.5% 0 in
20:04 86.5 °F 61.9 °F 30 in NE 12.5 mph 19 mph 44% 0 in
20:09 86.4 °F 61.9 °F 30 in NE 12 mph 17 mph 44% 0 in
20:14 86.4 °F 62.2 °F 30 in NE 10.7 mph 17.3 mph 44.7% 0 in
20:19 86.4 °F 63.3 °F 30 in ENE 10.1 mph 17 mph 46.3% 0 in
20:24 86.4 °F 63.7 °F 30 in NE 8.5 mph 15.6 mph 47% 0 in
20:29 86 °F 63.5 °F 30 in ENE 7.8 mph 16.1 mph 47% 0 in
20:34 85.6 °F 63.7 °F 30 in NE 6.2 mph 16.3 mph 47.7% 0 in
20:39 85.5 °F 63.9 °F 30 in ENE 6.5 mph 16 mph 48.6% 0 in
20:44 85.3 °F 64 °F 30 in NE 7.4 mph 16.1 mph 49% 0 in
20:49 85.3 °F 64.2 °F 30 in NE 7.1 mph 17 mph 49.5% 0 in
20:54 84.9 °F 64.2 °F 30 in NE 6.2 mph 17.3 mph 50.1% 0 in
20:59 84.7 °F 64.6 °F 30 in ENE 6.9 mph 15 mph 51.1% 0 in
21:04 84.6 °F 64.9 °F 30 in ENE 8.5 mph 14 mph 52% 0 in
21:09 84.2 °F 64.9 °F 30 in NE 8 mph 15 mph 52.5% 0 in
21:14 84 °F 65.1 °F 30 in NE 6.4 mph 15 mph 53.2% 0 in
21:19 83.8 °F 65.5 °F 30 in NE 6.8 mph 18.1 mph 54.3% 0 in
21:24 83.5 °F 65.8 °F 30 in NE 8.1 mph 18 mph 55.3% 0 in
21:29 83.3 °F 66 °F 30 in NE 8 mph 15 mph 56% 0 in
21:34 82.9 °F 66.2 °F 30.1 in NE 7.6 mph 14 mph 57.1% 0 in
21:39 82.8 °F 66.6 °F 30.1 in NE 7.4 mph 16.1 mph 58% 0 in
21:44 82.6 °F 66.9 °F 30.1 in NE 6.9 mph 16 mph 59% 0 in
21:49 82.6 °F 67.1 °F 30.1 in NE 6.5 mph 10 mph 59.6% 0 in
21:54 82.2 °F 66.9 °F 30.1 in NE 5.2 mph 8.5 mph 60% 0 in
21:59 82 °F 67.3 °F 30.1 in NE 5.2 mph 9 mph 60.8% 0 in
22:04 81.9 °F 67.5 °F 30.1 in NE 5.2 mph 10.7 mph 61.5% 0 in
22:09 81.9 °F 67.8 °F 30.1 in NE 5.5 mph 11 mph 62.6% 0 in
22:14 81.5 °F 68 °F 30.1 in NE 6.2 mph 14 mph 63.7% 0 in
22:19 81.3 °F 68.2 °F 30.1 in NE 6.4 mph 16.1 mph 64.7% 0 in
22:24 81.1 °F 68.5 °F 30.1 in NE 6.9 mph 16 mph 65.4% 0 in
22:29 81 °F 68.5 °F 30.1 in NE 7.3 mph 12.7 mph 66% 0 in
22:34 81 °F 68.9 °F 30.1 in NE 8.1 mph 15 mph 66.9% 0 in
22:39 80.6 °F 68.7 °F 30.1 in NE 8.2 mph 15 mph 67% 0 in
22:44 80.6 °F 69.1 °F 30.1 in NE 8.5 mph 13 mph 68% 0 in
22:49 80.4 °F 68.9 °F 30.1 in NE 8.1 mph 13 mph 68% 0 in
22:54 80.4 °F 69.1 °F 30.1 in NE 6.9 mph 12 mph 68.3% 0 in
22:59 80.2 °F 69.1 °F 30.1 in NE 6.7 mph 12 mph 69% 0 in
23:04 80.2 °F 69.1 °F 30.1 in NE 6.2 mph 12 mph 69% 0 in
23:09 80.1 °F 69.1 °F 30.1 in NE 6.2 mph 10.4 mph 69% 0 in
23:14 80.1 °F 69.3 °F 30.1 in NE 6.2 mph 10 mph 69.8% 0 in
23:19 79.9 °F 69.3 °F 30.1 in NE 5.9 mph 10 mph 70% 0 in
23:24 79.9 °F 69.3 °F 30.1 in NE 5.2 mph 10.4 mph 70% 0 in
23:29 79.9 °F 69.1 °F 30.1 in NE 5.3 mph 9.7 mph 69.9% 0 in
23:34 79.9 °F 68.9 °F 30.1 in NE 5.4 mph 10 mph 69.1% 0 in
23:39 79.9 °F 68.7 °F 30.1 in NE 5.2 mph 8 mph 69% 0 in
23:44 79.9 °F 68.4 °F 30.1 in NE 4.7 mph 8.1 mph 68.1% 0 in
23:49 79.9 °F 68.2 °F 30.1 in NE 4.9 mph 9.2 mph 67.5% 0 in
23:54 79.9 °F 67.8 °F 30.1 in NE 5.4 mph 9.2 mph 66.8% 0 in
23:59 79.9 °F 67.5 °F 30.1 in NE 5.5 mph 10.4 mph 66% 0 in
Murcia-Puente Tocinos, España
Compliments of Weather Underground - 2.75 mb

La estación de MeteoMurcia.com, publica sus datos en los siguientes proyectos:

Weather Underground PWS IMURCIAP2 Meteoclimatic www.awekas.at

W3Counter
Web Analytics